Flight Track Log - Related Links

Times and Time Zones

All times are in EDT time to prevent confusion due to time zone crossing. See the TAM3132 flight status page for this flight to view local times or setup timezone preferences in your user account.


Time Position Orientation Groundspeed Altitude Reporting Facility
EDT Latitude Longitude Course Direction KTS MPH feet Rate Location/Type
Tue 12:39:00 PM -22.5321 -44.4998 62° Northeast  Level Estimated
Tue 12:40:00 PM -22.4858 -44.4107 61° Northeast  Level Estimated
Tue 12:41:00 PM -22.4396 -44.3217 61° Northeast  Level Estimated
Tue 12:42:00 PM -22.3932 -44.2328 61° Northeast  Level Estimated
Tue 12:43:00 PM -22.3468 -44.1439 61° Northeast  Level Estimated
Tue 12:44:00 PM -22.3004 -44.0551 61° Northeast  Level Estimated
Tue 12:45:00 PM -22.2539 -43.9663 61° Northeast  Level Estimated
Tue 12:46:00 PM -22.2074 -43.8776 60° Northeast  Level Estimated
Tue 12:47:00 PM -22.1608 -43.7890 60° Northeast  Level Estimated
Tue 12:48:00 PM -22.1142 -43.7004 60° Northeast  Level Estimated
Tue 12:49:00 PM -22.0676 -43.6119 60° Northeast  Level Estimated
Tue 12:50:00 PM -22.0208 -43.5234 60° Northeast  Level Estimated
Tue 12:51:00 PM -21.9741 -43.4350 60° Northeast  Level Estimated
Tue 12:52:00 PM -21.9272 -43.3466 60° Northeast  Level Estimated
Tue 12:53:00 PM -21.8804 -43.2583 60° Northeast  Level Estimated
Tue 12:54:00 PM -21.8335 -43.1701 60° Northeast  Level Estimated
Tue 12:55:00 PM -21.7865 -43.0819 60° Northeast  Level Estimated
Tue 12:56:00 PM -21.7395 -42.9938 60° Northeast  Level Estimated
Tue 12:57:00 PM -21.6925 -42.9057 60° Northeast  Level Estimated
Tue 12:58:00 PM -21.6454 -42.8177 60° Northeast  Level Estimated
Tue 12:59:00 PM -21.5982 -42.7298 60° Northeast  Level Estimated
Tue 01:00:00 PM -21.5511 -42.6419 60° Northeast  Level Estimated
Tue 01:01:00 PM -21.5038 -42.5541 60° Northeast  Level Estimated
Tue 01:02:00 PM -21.4566 -42.4663 60° Northeast  Level Estimated
Tue 01:03:00 PM -21.4092 -42.3786 60° Northeast  Level Estimated
Tue 01:04:00 PM -21.3619 -42.2909 60° Northeast  Level Estimated
Tue 01:05:00 PM -21.3144 -42.2033 60° Northeast  Level Estimated
Tue 01:06:00 PM -21.2670 -42.1157 60° Northeast  Level Estimated
Tue 01:07:00 PM -21.2195 -42.0283 60° Northeast  Level Estimated
Tue 01:08:00 PM -21.1719 -41.9408 60° Northeast  Level Estimated
Tue 01:09:00 PM -21.1243 -41.8534 60° Northeast  Level Estimated
Tue 01:10:00 PM -21.0767 -41.7661 60° Northeast  Level Estimated
Tue 01:11:00 PM -21.0290 -41.6788 60° Northeast  Level Estimated
Tue 01:12:00 PM -20.9813 -41.5916 60° Northeast  Level Estimated
Tue 01:13:00 PM -20.9335 -41.5045 60° Northeast  Level Estimated
Tue 01:14:00 PM -20.8857 -41.4174 60° Northeast  Level Estimated
Tue 01:15:00 PM -20.8378 -41.3303 60° Northeast  Level Estimated
Tue 01:16:00 PM -20.7899 -41.2433 60° Northeast  Level Estimated
Tue 01:17:00 PM -20.7420 -41.1564 59° Northeast  Level Estimated
Tue 01:18:00 PM -20.6940 -41.0695 59° Northeast  Level Estimated
Tue 01:19:00 PM -20.6459 -40.9827 59° Northeast  Level Estimated
Tue 01:20:00 PM -20.5979 -40.8959 59° Northeast  Level Estimated
Tue 01:21:00 PM -20.5497 -40.8092 59° Northeast  Level Estimated
Tue 01:22:00 PM -20.5016 -40.7225 59° Northeast  Level Estimated
Tue 01:23:00 PM -20.4534 -40.6359 59° Northeast  Level Estimated
Tue 01:24:00 PM -20.4051 -40.5494 59° Northeast  Level Estimated
Tue 01:25:00 PM -20.3568 -40.4629 59° Northeast  Level Estimated
Tue 01:26:00 PM -20.3085 -40.3764 59° Northeast  Level Estimated
Tue 01:27:00 PM -20.2601 -40.2900 59° Northeast  Level Estimated
Tue 01:28:00 PM -20.2581 -40.2864 59° Northeast  Level Estimated
Tue 01:29:00 PM -20.2581 -40.2864 13° North  Level Estimated
Tue 01:30:00 PM -20.2581 -40.2864 13° North  Level Estimated
Tue 01:31:00 PM -20.2581 -40.2864 13° North  Level Estimated
Tue 01:32:00 PM -20.2581 -40.2864 13° North  Level Estimated
Tue 01:33:00 PM -20.2581 -40.2864 13° North  Level Estimated
Tue 01:34:00 PM -20.2581 -40.2864 13° North  Level Estimated
Tue 01:35:00 PM -20.2581 -40.2864 13° North  Level Estimated
Tue 01:36:00 PM -20.2581 -40.2864 13° North  Level Estimated
Tue 01:37:00 PM -20.2581 -40.2864 13° North  Level Estimated
Tue 01:38:00 PM -20.2581 -40.2864 13° North  Level Estimated
Tue 01:39:00 PM -20.2581 -40.2864 13° North  Level Estimated
Tue 01:40:00 PM -20.2581 -40.2864 13° North  Level Estimated
Tue 01:41:00 PM -20.2581 -40.2864 13° North  Level Estimated
Tue 01:42:00 PM -20.2581 -40.2864 13° North  Level Estimated
Tue 01:43:00 PM -20.2581 -40.2864 13° North  Level Estimated

Login

Don't have an account? Register now (free) for customized features, flight alerts, and more!